createdAt,value
2018-02-21T00:00:22.410Z,44.65
2018-02-21T00:00:54.066Z,47.78
2018-02-21T00:01:25.724Z,45.53
2018-02-21T00:01:57.350Z,42.15
2018-02-21T00:02:28.966Z,44.25
2018-02-21T00:03:00.642Z,40.47
2018-02-21T00:03:32.284Z,44.42
2018-02-21T00:04:03.914Z,37.63
2018-02-21T00:04:35.546Z,45.25
2018-02-21T00:05:07.162Z,45.53
2018-02-21T00:05:38.802Z,45.90
2018-02-21T00:06:10.422Z,45.17
2018-02-21T00:06:42.055Z,44.05
2018-02-21T00:07:13.712Z,44.95
2018-02-21T00:07:45.344Z,40.70
2018-02-21T00:08:17.004Z,43.45
2018-02-21T00:08:48.620Z,45.25
2018-02-21T00:09:20.249Z,46.63
2018-02-21T00:09:51.927Z,43.03
2018-02-21T00:10:23.548Z,46.08
2018-02-21T00:10:55.194Z,46.63
2018-02-21T00:11:26.813Z,45.10
2018-02-21T00:11:58.413Z,46.97
2018-02-21T00:12:30.043Z,45.42
2018-02-21T00:13:01.640Z,44.90
2018-02-21T00:13:33.289Z,45.05
2018-02-21T00:14:04.935Z,44.67
2018-02-21T00:14:36.596Z,43.85
2018-02-21T00:15:08.256Z,43.53
2018-02-21T00:15:39.892Z,43.33
2018-02-21T00:16:11.526Z,44.00
2018-02-21T00:16:43.140Z,41.30
2018-02-21T00:17:14.742Z,44.40
2018-02-21T00:17:46.346Z,42.80
2018-02-21T00:18:17.951Z,42.22
2018-02-21T00:18:49.586Z,42.58
2018-02-21T00:19:21.244Z,45.63
2018-02-21T00:19:52.847Z,44.38
2018-02-21T00:20:24.486Z,44.13
2018-02-21T00:20:56.096Z,44.88
2018-02-21T00:21:27.709Z,44.75
2018-02-21T00:21:59.312Z,45.70
2018-02-21T00:22:30.938Z,45.58
2018-02-21T00:23:02.572Z,45.90
2018-02-21T00:23:34.230Z,43.22
2018-02-21T00:24:05.882Z,42.90
2018-02-21T00:24:37.498Z,44.78
2018-02-21T00:25:09.113Z,42.90
2018-02-21T00:25:40.749Z,43.35
2018-02-21T00:26:12.368Z,44.42
2018-02-21T00:26:44.060Z,44.67
2018-02-21T00:27:15.686Z,44.00
2018-02-21T00:27:47.322Z,44.60
2018-02-21T00:28:18.953Z,44.75
2018-02-21T00:28:50.579Z,44.88
2018-02-21T00:29:22.201Z,45.22
2018-02-21T00:29:53.832Z,46.45
2018-02-21T00:30:25.468Z,44.13
2018-02-21T00:30:57.108Z,47.58
2018-02-21T00:31:28.720Z,45.28
2018-02-21T00:32:00.364Z,44.75
2018-02-21T00:32:31.987Z,43.00
2018-02-21T00:33:03.608Z,43.00
2018-02-21T00:33:35.230Z,41.70
2018-02-21T00:34:06.828Z,41.50
2018-02-21T00:34:38.456Z,40.10
2018-02-21T00:35:10.066Z,41.22
2018-02-21T00:35:41.690Z,40.08
2018-02-21T00:36:13.318Z,42.88
2018-02-21T00:36:44.948Z,42.50
2018-02-21T00:37:16.570Z,38.90
2018-02-21T00:37:48.186Z,41.40
2018-02-21T00:38:19.794Z,40.35
2018-02-21T00:38:51.424Z,39.38
2018-02-21T00:39:23.044Z,41.53
2018-02-21T00:39:54.683Z,40.53
2018-02-21T00:40:26.328Z,43.60
2018-02-21T00:40:57.947Z,40.40
2018-02-21T00:41:29.563Z,39.88
2018-02-21T00:42:01.196Z,41.65
2018-02-21T00:42:32.828Z,40.60
2018-02-21T00:43:04.478Z,42.97
2018-02-21T00:43:36.088Z,40.58
2018-02-21T00:44:07.710Z,44.75
2018-02-21T00:44:39.320Z,40.17
2018-02-21T00:45:10.952Z,45.35
2018-02-21T00:45:42.576Z,45.35
2018-02-21T00:46:14.228Z,44.55
2018-02-21T00:46:45.860Z,43.90
2018-02-21T00:47:17.486Z,44.75
2018-02-21T00:47:49.121Z,43.58
2018-02-21T00:48:20.730Z,43.08
2018-02-21T00:48:52.362Z,42.08
2018-02-21T00:49:23.973Z,42.90
2018-02-21T00:49:55.610Z,45.60
2018-02-21T00:50:27.223Z,46.00
2018-02-21T00:50:58.849Z,43.90
2018-02-21T00:51:30.516Z,47.05
2018-02-21T00:52:02.143Z,43.46
2018-02-21T00:52:33.782Z,46.88
2018-02-21T00:53:05.394Z,47.28
2018-02-21T00:53:37.020Z,45.97
2018-02-21T00:54:08.656Z,43.10
2018-02-21T00:54:40.288Z,45.10
2018-02-21T00:55:11.892Z,41.60
2018-02-21T00:55:43.526Z,42.20
2018-02-21T00:56:15.148Z,43.90
2018-02-21T00:56:46.779Z,43.33
2018-02-21T00:57:18.437Z,43.08
2018-02-21T00:57:50.057Z,41.53
2018-02-21T00:58:21.686Z,39.58
2018-02-21T00:58:53.313Z,41.30
2018-02-21T00:59:24.943Z,39.75
2018-02-21T00:59:56.584Z,41.00
2018-02-21T01:00:28.209Z,39.80
2018-02-21T01:00:59.847Z,41.15
2018-02-21T01:01:31.456Z,40.58
2018-02-21T01:02:03.068Z,39.80
2018-02-21T01:02:34.708Z,40.03
2018-02-21T01:03:06.339Z,40.25
2018-02-21T01:03:37.970Z,38.72
2018-02-21T01:04:09.576Z,40.17
2018-02-21T01:04:41.210Z,38.90
2018-02-21T01:05:12.850Z,39.55
2018-02-21T01:05:44.466Z,39.58
2018-02-21T01:06:16.124Z,38.22
2018-02-21T01:06:47.758Z,39.45
2018-02-21T01:07:19.424Z,38.25
2018-02-21T01:07:51.065Z,38.72
2018-02-21T01:08:22.680Z,38.63
2018-02-21T01:08:54.296Z,37.38
2018-02-21T01:09:25.914Z,38.40
2018-02-21T01:09:57.541Z,36.28
2018-02-21T01:10:29.156Z,38.03
2018-02-21T01:11:00.787Z,38.00
2018-02-21T01:11:32.441Z,37.42
2018-02-21T01:12:04.076Z,36.80
2018-02-21T01:12:36.342Z,38.35
2018-02-21T01:13:07.968Z,38.78
2018-02-21T01:13:39.606Z,38.20
2018-02-21T01:14:11.242Z,40.33
2018-02-21T01:14:42.855Z,40.47
2018-02-21T01:15:14.522Z,40.50
2018-02-21T01:15:46.146Z,42.50
2018-02-21T01:16:17.787Z,41.10
2018-02-21T01:16:49.395Z,39.05
2018-02-21T01:17:21.036Z,39.75
2018-02-21T01:17:52.663Z,39.65
2018-02-21T01:18:24.282Z,39.45
2018-02-21T01:18:55.915Z,38.65
2018-02-21T01:19:27.528Z,37.65
2018-02-21T01:19:59.131Z,39.53
2018-02-21T01:20:30.753Z,40.38
2018-02-21T01:21:02.398Z,39.00
2018-02-21T01:21:34.033Z,40.10
2018-02-21T01:22:05.691Z,38.78
2018-02-21T01:22:37.294Z,39.08
2018-02-21T01:23:08.932Z,43.80
2018-02-21T01:23:40.562Z,41.70
2018-02-21T01:24:12.174Z,41.33
2018-02-21T01:24:43.790Z,39.35
2018-02-21T01:25:15.422Z,40.35
2018-02-21T01:25:47.030Z,40.47
2018-02-21T01:26:18.685Z,41.67
2018-02-21T01:26:50.291Z,39.33
2018-02-21T01:27:21.905Z,39.95
2018-02-21T01:27:53.542Z,40.17
2018-02-21T01:28:25.180Z,39.97
2018-02-21T01:28:56.793Z,38.28
2018-02-21T01:29:28.411Z,39.47
2018-02-21T01:30:00.024Z,39.03
2018-02-21T01:30:31.649Z,38.92
2018-02-21T01:31:03.309Z,39.22
2018-02-21T01:31:34.942Z,38.90
2018-02-21T01:32:06.565Z,39.30
2018-02-21T01:32:38.199Z,39.60
2018-02-21T01:33:09.831Z,39.92
2018-02-21T01:33:41.480Z,37.78
2018-02-21T01:34:13.090Z,39.20
2018-02-21T01:34:44.714Z,39.20
2018-02-21T01:35:16.344Z,38.83
2018-02-21T01:35:47.979Z,39.25
2018-02-21T01:36:19.614Z,38.72
2018-02-21T01:36:51.246Z,40.60
2018-02-21T01:37:22.879Z,40.65
2018-02-21T01:37:54.521Z,41.22
2018-02-21T01:38:26.161Z,39.30
2018-02-21T01:38:57.798Z,39.08
2018-02-21T01:39:29.415Z,38.92
2018-02-21T01:40:01.069Z,41.20
2018-02-21T01:40:32.715Z,40.26
2018-02-21T01:41:04.394Z,40.88
2018-02-21T01:41:36.038Z,41.20
2018-02-21T01:42:07.683Z,38.80
2018-02-21T01:42:39.310Z,42.05
2018-02-21T01:43:10.933Z,39.78
2018-02-21T01:43:42.569Z,42.35
2018-02-21T01:44:14.198Z,44.28
2018-02-21T01:44:45.821Z,44.13
2018-02-21T01:45:17.443Z,42.62
2018-02-21T01:45:49.071Z,44.50
2018-02-21T01:46:20.749Z,44.40
2018-02-21T01:46:52.471Z,46.50
2018-02-21T01:47:24.086Z,47.25
2018-02-21T01:47:55.709Z,44.03
2018-02-21T01:48:27.345Z,44.20
2018-02-21T01:48:58.962Z,45.90
2018-02-21T01:49:30.570Z,46.50
2018-02-21T01:50:02.209Z,47.88
2018-02-21T01:50:51.260Z,46.35
2018-02-21T01:51:22.893Z,45.17
2018-02-21T01:51:54.527Z,48.45
2018-02-21T01:52:26.134Z,47.97
2018-02-21T01:52:57.782Z,47.08
2018-02-21T01:53:29.439Z,50.22
2018-02-21T01:54:01.072Z,50.63
2018-02-21T01:54:32.721Z,47.50
2018-02-21T01:55:04.349Z,47.55
2018-02-21T01:55:35.994Z,46.47
2018-02-21T01:56:07.620Z,45.47
2018-02-21T01:56:39.237Z,44.80
2018-02-21T01:57:10.913Z,45.65
2018-02-21T01:57:42.547Z,43.55
2018-02-21T01:58:14.152Z,42.25
2018-02-21T01:58:45.794Z,42.80
2018-02-21T01:59:17.441Z,44.45
2018-02-21T01:59:49.077Z,43.17
2018-02-21T02:00:20.694Z,43.50
2018-02-21T02:00:52.345Z,41.67
2018-02-21T02:01:23.961Z,42.30
2018-02-21T02:01:55.587Z,43.42
2018-02-21T02:02:27.203Z,42.67
2018-02-21T02:02:58.857Z,43.87
2018-02-21T02:03:30.485Z,43.30
2018-02-21T02:04:02.153Z,42.62
2018-02-21T02:04:33.792Z,43.67
2018-02-21T02:05:05.424Z,43.95
2018-02-21T02:05:37.047Z,44.33
2018-02-21T02:06:08.668Z,43.38
2018-02-21T02:06:40.314Z,46.37
2018-02-21T02:07:11.946Z,45.67
2018-02-21T02:07:43.579Z,48.05
2018-02-21T02:08:15.221Z,46.92
2018-02-21T02:08:46.866Z,48.20
2018-02-21T02:09:18.476Z,45.40
2018-02-21T02:09:50.107Z,45.63
2018-02-21T02:10:21.729Z,46.28
2018-02-21T02:10:53.340Z,46.20
2018-02-21T02:11:24.982Z,44.30
2018-02-21T02:11:56.649Z,45.95
2018-02-21T02:12:28.285Z,43.78
2018-02-21T02:12:59.926Z,43.97
2018-02-21T02:13:31.548Z,42.03
2018-02-21T02:14:03.222Z,42.75
2018-02-21T02:14:34.868Z,40.65
2018-02-21T02:15:06.502Z,42.92
2018-02-21T02:15:38.169Z,39.13
2018-02-21T02:16:09.809Z,41.92
2018-02-21T02:16:41.437Z,41.67
2018-02-21T02:17:13.064Z,40.90
2018-02-21T02:17:44.661Z,40.22
2018-02-21T02:18:16.283Z,42.15
2018-02-21T02:18:47.901Z,39.08
2018-02-21T02:19:19.531Z,40.15
2018-02-21T02:19:51.235Z,42.42
2018-02-21T02:20:22.863Z,42.40
2018-02-21T02:20:54.516Z,42.53
2018-02-21T02:21:26.179Z,44.15
2018-02-21T02:21:57.809Z,42.97
2018-02-21T02:22:29.455Z,43.80
2018-02-21T02:23:01.091Z,48.20
2018-02-21T02:23:32.705Z,49.22
2018-02-21T02:24:04.338Z,48.97
2018-02-21T02:24:35.949Z,46.63
2018-02-21T02:25:07.567Z,48.72
2018-02-21T02:25:39.207Z,47.10
2018-02-21T02:26:10.837Z,49.90
2018-02-21T02:26:42.473Z,52.55
2018-02-21T02:27:14.094Z,55.75
2018-02-21T02:27:45.725Z,47.78
2018-02-21T02:28:17.341Z,48.70
2018-02-21T02:28:48.960Z,50.58
2018-02-21T02:29:20.589Z,51.10
2018-02-21T02:29:52.224Z,47.67
2018-02-21T02:30:23.859Z,47.80
2018-02-21T02:30:55.494Z,48.03
2018-02-21T02:31:27.143Z,47.75
2018-02-21T02:31:58.789Z,44.13
2018-02-21T02:32:30.409Z,43.35
2018-02-21T02:33:02.056Z,41.08
2018-02-21T02:33:33.702Z,42.28
2018-02-21T02:34:05.323Z,42.00
2018-02-21T02:34:36.949Z,41.75
2018-02-21T02:35:08.604Z,41.72
2018-02-21T02:35:40.236Z,40.90
2018-02-21T02:36:11.890Z,40.10
2018-02-21T02:36:43.521Z,40.15
2018-02-21T02:37:15.160Z,40.42
2018-02-21T02:37:46.819Z,36.72
2018-02-21T02:38:37.113Z,38.83
2018-02-21T02:39:27.276Z,39.45
2018-02-21T02:40:00.851Z,39.15
2018-02-21T02:40:32.461Z,35.47
2018-02-21T02:41:04.117Z,38.42
2018-02-21T02:41:35.735Z,40.12
2018-02-21T02:42:07.360Z,39.45
2018-02-21T02:42:38.974Z,40.70
2018-02-21T02:43:10.588Z,42.35
2018-02-21T02:43:42.236Z,43.92
2018-02-21T02:44:13.862Z,45.58
2018-02-21T02:44:45.488Z,43.17
2018-02-21T02:45:17.141Z,45.22
2018-02-21T02:45:48.768Z,44.30
2018-02-21T02:46:20.424Z,43.65
2018-02-21T02:46:52.042Z,43.75
2018-02-21T02:47:23.685Z,44.90
2018-02-21T02:47:55.326Z,43.53
2018-02-21T02:48:26.938Z,43.17
2018-02-21T02:48:58.582Z,40.25
2018-02-21T02:49:30.236Z,41.75
2018-02-21T02:50:01.881Z,42.30
2018-02-21T02:50:33.531Z,42.42
2018-02-21T02:51:05.156Z,44.55
2018-02-21T02:51:36.803Z,43.22
2018-02-21T02:52:08.422Z,43.33
2018-02-21T02:52:40.059Z,43.30
2018-02-21T02:53:11.699Z,45.42
2018-02-21T02:53:43.312Z,48.95
2018-02-21T02:54:14.939Z,49.55
2018-02-21T02:54:46.577Z,48.20
2018-02-21T02:55:18.202Z,45.72
2018-02-21T02:55:49.849Z,46.33
2018-02-21T02:56:21.464Z,41.47
2018-02-21T02:56:53.212Z,48.17
2018-02-21T02:57:24.874Z,52.08
2018-02-21T02:57:56.505Z,46.90
2018-02-21T02:58:28.136Z,48.38
2018-02-21T02:58:59.781Z,45.50
2018-02-21T02:59:31.402Z,46.03
2018-02-21T03:00:03.149Z,48.08
2018-02-21T03:00:34.821Z,49.10
2018-02-21T03:01:06.454Z,47.83
2018-02-21T03:01:38.100Z,47.55
2018-02-21T03:02:09.748Z,48.03
2018-02-21T03:02:41.373Z,46.70
2018-02-21T03:03:13.002Z,48.05
2018-02-21T03:03:44.628Z,47.35
2018-02-21T03:04:16.282Z,47.53
2018-02-21T03:04:47.925Z,45.53
2018-02-21T03:05:19.553Z,48.28
2018-02-21T03:05:51.176Z,45.90
2018-02-21T03:06:22.809Z,44.15
2018-02-21T03:06:54.440Z,47.03
2018-02-21T03:07:26.066Z,47.35
2018-02-21T03:07:57.666Z,53.65
2018-02-21T03:08:29.283Z,60.15
2018-02-21T03:09:00.907Z,58.00
2018-02-21T03:09:32.549Z,50.05
2018-02-21T03:10:04.177Z,48.78
2018-02-21T03:10:35.809Z,54.13
2018-02-21T03:11:07.409Z,42.80
2018-02-21T03:11:39.020Z,48.85
2018-02-21T03:12:10.637Z,47.80
2018-02-21T03:12:42.251Z,47.47
2018-02-21T03:13:13.873Z,41.78
2018-02-21T03:13:45.509Z,45.45
2018-02-21T03:14:17.169Z,41.13
2018-02-21T03:14:48.796Z,42.22
2018-02-21T03:15:20.413Z,42.90
2018-02-21T03:15:52.038Z,43.78
2018-02-21T03:16:23.675Z,43.33
2018-02-21T03:16:55.302Z,41.20
2018-02-21T03:17:26.933Z,41.88
2018-02-21T03:17:58.569Z,43.72
2018-02-21T03:18:30.202Z,42.90
2018-02-21T03:19:01.825Z,41.37
2018-02-21T03:19:33.439Z,44.88
2018-02-21T03:20:05.055Z,45.20
2018-02-21T03:20:36.701Z,42.45
2018-02-21T03:21:08.331Z,50.53
2018-02-21T03:21:39.960Z,44.45
2018-02-21T03:22:11.591Z,45.90
2018-02-21T03:22:43.204Z,43.17
2018-02-21T03:23:14.847Z,44.33
2018-02-21T03:23:46.457Z,44.95
2018-02-21T03:24:18.097Z,45.58
2018-02-21T03:24:49.717Z,41.92
2018-02-21T03:25:21.372Z,44.08
2018-02-21T03:25:53.007Z,42.78
2018-02-21T03:26:24.651Z,43.72
2018-02-21T03:26:56.376Z,43.75
2018-02-21T03:27:28.041Z,43.80
2018-02-21T03:27:59.661Z,44.53
2018-02-21T03:28:31.293Z,43.28
2018-02-21T03:29:02.928Z,45.58
2018-02-21T03:29:34.525Z,44.63
2018-02-21T03:30:06.132Z,50.28
2018-02-21T03:30:37.782Z,45.70
2018-02-21T03:31:09.391Z,48.45
2018-02-21T03:31:41.064Z,44.78
2018-02-21T03:32:12.704Z,46.40
2018-02-21T03:32:44.325Z,46.37
2018-02-21T03:33:15.971Z,41.50
2018-02-21T03:33:47.608Z,47.90
2018-02-21T03:34:19.247Z,44.45
2018-02-21T03:34:50.859Z,43.75
2018-02-21T03:35:22.467Z,43.22
2018-02-21T03:35:54.107Z,41.65
2018-02-21T03:36:25.727Z,42.03
2018-02-21T03:36:57.471Z,43.25
2018-02-21T03:37:29.107Z,40.17
2018-02-21T03:38:00.749Z,43.05
2018-02-21T03:38:32.400Z,43.55
2018-02-21T03:39:04.046Z,46.10
2018-02-21T03:39:35.685Z,41.58
2018-02-21T03:40:07.319Z,45.42
2018-02-21T03:40:38.962Z,42.22
2018-02-21T03:41:10.597Z,44.38
2018-02-21T03:41:42.230Z,44.22
2018-02-21T03:42:13.863Z,42.60
2018-02-21T03:42:45.501Z,42.72
2018-02-21T03:43:17.111Z,43.92
2018-02-21T03:43:48.759Z,48.87
2018-02-21T03:44:20.397Z,43.75
2018-02-21T03:44:52.043Z,42.20
2018-02-21T03:45:23.685Z,44.50
2018-02-21T03:45:55.337Z,43.83
2018-02-21T03:46:26.961Z,43.58
2018-02-21T03:46:58.585Z,45.38
2018-02-21T03:47:30.211Z,44.00
2018-02-21T03:48:01.856Z,41.83
2018-02-21T03:48:33.453Z,43.38
2018-02-21T03:49:05.092Z,42.17
2018-02-21T03:49:36.709Z,45.70
2018-02-21T03:50:08.343Z,44.65
2018-02-21T03:50:39.957Z,45.83
2018-02-21T03:51:11.574Z,43.72
2018-02-21T03:51:43.209Z,45.15
2018-02-21T03:52:14.839Z,45.85
2018-02-21T03:52:46.457Z,45.58
2018-02-21T03:53:18.086Z,45.25
2018-02-21T03:53:49.718Z,42.92
2018-02-21T03:54:21.340Z,42.53
2018-02-21T03:54:52.979Z,44.05
2018-02-21T03:55:24.613Z,40.88
2018-02-21T03:55:56.253Z,42.03
2018-02-21T03:56:27.877Z,41.85
2018-02-21T03:56:59.517Z,41.10
2018-02-21T03:57:31.141Z,40.08
2018-02-21T03:58:02.795Z,41.45
2018-02-21T03:58:34.413Z,40.67
2018-02-21T03:59:06.065Z,40.92
2018-02-21T03:59:37.685Z,40.12
2018-02-21T04:00:09.307Z,40.75
2018-02-21T04:00:40.953Z,41.00
2018-02-21T04:01:12.581Z,39.50
2018-02-21T04:01:44.207Z,38.85
2018-02-21T04:02:15.853Z,39.88
2018-02-21T04:02:47.493Z,37.55
2018-02-21T04:03:19.095Z,36.83
2018-02-21T04:03:50.714Z,37.38
2018-02-21T04:04:22.370Z,36.83
2018-02-21T04:04:53.993Z,37.97
2018-02-21T04:05:25.625Z,36.95
2018-02-21T04:05:57.233Z,35.90
2018-02-21T04:06:28.862Z,36.95
2018-02-21T04:11:58.253Z,36.75
2018-02-21T04:12:29.860Z,36.55
2018-02-21T04:13:01.455Z,35.38
2018-02-21T04:13:33.075Z,36.22
2018-02-21T04:14:04.709Z,35.95
2018-02-21T04:14:36.333Z,35.45
2018-02-21T04:15:07.990Z,33.40
2018-02-21T04:15:39.611Z,35.17
2018-02-21T04:16:11.235Z,36.47
2018-02-21T04:16:42.853Z,39.72
2018-02-21T04:17:14.471Z,40.67
2018-02-21T04:17:46.130Z,39.55
2018-02-21T04:18:17.775Z,40.60
2018-02-21T04:18:49.391Z,42.50
2018-02-21T04:19:21.031Z,42.28
2018-02-21T04:19:52.672Z,40.92
2018-02-21T04:20:25.067Z,41.55
2018-02-21T04:20:56.697Z,44.30
2018-02-21T04:21:28.327Z,45.55
2018-02-21T04:21:59.953Z,48.13
2018-02-21T04:22:31.593Z,55.33
2018-02-21T04:23:03.197Z,48.85
2018-02-21T04:23:34.817Z,48.72
2018-02-21T04:24:06.451Z,48.33
2018-02-21T04:24:38.072Z,45.60
2018-02-21T04:25:09.723Z,46.60
2018-02-21T04:25:41.355Z,44.97
2018-02-21T04:26:12.976Z,44.30
2018-02-21T04:26:44.625Z,44.55
2018-02-21T04:27:16.264Z,43.35
2018-02-21T04:27:47.889Z,42.55
2018-02-21T04:28:19.519Z,41.70
2018-02-21T04:28:51.169Z,41.25
2018-02-21T04:29:22.801Z,40.82
2018-02-21T04:29:54.433Z,40.00
2018-02-21T04:30:26.075Z,38.70
2018-02-21T04:30:57.705Z,39.13
2018-02-21T04:31:29.335Z,39.75
2018-02-21T04:32:00.971Z,36.83
2018-02-21T04:32:32.589Z,38.80
2018-02-21T04:33:04.213Z,40.45
2018-02-21T04:33:35.835Z,39.30
2018-02-21T04:34:07.469Z,37.75
2018-02-21T04:34:39.128Z,38.50
2018-02-21T04:35:10.753Z,37.38
2018-02-21T04:35:42.367Z,35.80
2018-02-21T04:36:13.993Z,39.85
2018-02-21T04:36:45.645Z,39.63
2018-02-21T04:37:17.261Z,40.83
2018-02-21T04:37:48.859Z,42.03
2018-02-21T04:38:20.507Z,41.83
2018-02-21T04:38:52.139Z,42.62
2018-02-21T04:39:23.747Z,41.37
2018-02-21T04:39:55.399Z,40.05
2018-02-21T04:40:27.037Z,41.95
2018-02-21T04:40:58.679Z,39.17
2018-02-21T04:41:30.355Z,38.75
2018-02-21T04:42:01.974Z,38.83
2018-02-21T04:42:33.596Z,38.58
2018-02-21T04:43:05.224Z,40.10
2018-02-21T04:43:36.869Z,40.40
2018-02-21T04:44:08.477Z,40.42
2018-02-21T04:44:40.083Z,39.08
2018-02-21T04:45:11.705Z,44.50
2018-02-21T04:45:43.505Z,43.55
2018-02-21T04:46:15.125Z,44.55
2018-02-21T04:46:46.751Z,47.40
2018-02-21T04:47:18.372Z,44.47
2018-02-21T04:47:49.989Z,47.55
2018-02-21T04:48:21.661Z,48.28
2018-02-21T04:48:53.293Z,46.47
2018-02-21T04:49:24.954Z,46.42
2018-02-21T04:49:56.549Z,45.70
2018-02-21T04:50:28.171Z,46.20
2018-02-21T04:50:59.803Z,44.35
2018-02-21T04:51:31.417Z,43.03
2018-02-21T04:52:03.044Z,41.83
2018-02-21T04:52:34.684Z,42.80
2018-02-21T04:53:06.317Z,42.20
2018-02-21T04:53:37.981Z,40.42
2018-02-21T04:54:09.646Z,41.67
2018-02-21T04:54:45.260Z,40.10
2018-02-21T04:55:23.093Z,39.00
2018-02-21T04:56:00.907Z,41.53
2018-02-21T04:56:38.671Z,41.53
2018-02-21T04:57:16.425Z,39.78
2018-02-21T04:57:48.928Z,42.42
2018-02-21T04:58:26.706Z,46.90
2018-02-21T04:59:04.484Z,43.30
2018-02-21T04:59:39.173Z,41.45
2018-02-21T05:00:10.815Z,40.72
2018-02-21T05:00:42.482Z,41.60
2018-02-21T05:01:14.140Z,44.80
2018-02-21T05:01:45.795Z,45.85
2018-02-21T05:02:17.454Z,45.78
2018-02-21T05:02:49.073Z,45.60
2018-02-21T05:03:20.705Z,45.78
2018-02-21T05:03:52.321Z,44.63
2018-02-21T05:04:23.955Z,45.50
2018-02-21T05:04:55.575Z,43.42
2018-02-21T05:05:27.210Z,43.33
2018-02-21T05:05:58.845Z,43.60
2018-02-21T05:06:30.521Z,43.17
2018-02-21T05:07:02.203Z,42.35
2018-02-21T05:07:33.845Z,41.08
2018-02-21T05:08:05.462Z,39.10
2018-02-21T05:08:37.107Z,39.85
2018-02-21T05:09:08.753Z,38.97
2018-02-21T05:09:40.387Z,40.25
2018-02-21T05:10:12.047Z,36.85
2018-02-21T05:10:43.665Z,38.13
2018-02-21T05:11:15.277Z,37.75
2018-02-21T05:11:46.915Z,39.72
2018-02-21T05:12:18.549Z,40.83
2018-02-21T05:12:50.180Z,40.28
2018-02-21T05:13:21.809Z,41.67
2018-02-21T05:13:53.445Z,43.22
2018-02-21T05:14:25.064Z,43.22
2018-02-21T05:14:56.709Z,45.42
2018-02-21T05:15:28.343Z,49.22
2018-02-21T05:15:59.961Z,49.13
2018-02-21T05:16:31.599Z,48.33
2018-02-21T05:17:03.240Z,44.38
2018-02-21T05:17:34.907Z,45.65
2018-02-21T05:18:06.547Z,44.40
2018-02-21T05:18:38.171Z,45.20
2018-02-21T05:19:09.808Z,43.80
2018-02-21T05:19:41.491Z,45.72
2018-02-21T05:20:13.109Z,45.97
2018-02-21T05:20:44.772Z,44.47
2018-02-21T05:21:16.389Z,42.67
2018-02-21T05:21:48.017Z,43.53
2018-02-21T05:22:19.639Z,42.60
2018-02-21T05:22:51.275Z,42.58
2018-02-21T05:23:22.920Z,47.28
2018-02-21T05:23:54.593Z,50.15
2018-02-21T05:24:26.229Z,49.17
2018-02-21T05:24:57.860Z,45.83
2018-02-21T05:25:29.483Z,44.10
2018-02-21T05:26:01.133Z,46.00
2018-02-21T05:26:32.757Z,45.70
2018-02-21T05:27:04.383Z,45.50
2018-02-21T05:27:36.084Z,43.47
2018-02-21T05:28:07.702Z,43.50
2018-02-21T05:28:39.334Z,44.28
2018-02-21T05:29:10.950Z,42.70
2018-02-21T05:29:42.597Z,39.85
2018-02-21T05:30:14.213Z,41.78
2018-02-21T05:30:45.833Z,39.78
2018-02-21T05:31:17.491Z,38.85
2018-02-21T05:31:49.097Z,40.70
2018-02-21T05:32:20.717Z,39.08
2018-02-21T05:32:52.363Z,40.03
2018-02-21T05:33:24.019Z,37.75
2018-02-21T05:33:55.638Z,38.97
2018-02-21T05:34:27.264Z,36.92
2018-02-21T05:34:58.893Z,37.00
2018-02-21T05:35:30.535Z,38.10
2018-02-21T05:36:02.197Z,38.78
2018-02-21T05:36:33.893Z,37.65
2018-02-21T05:37:05.521Z,39.22
2018-02-21T05:37:37.149Z,39.25
2018-02-21T05:38:08.798Z,37.63
2018-02-21T05:38:40.421Z,37.80
2018-02-21T05:39:12.027Z,38.85
2018-02-21T05:39:43.659Z,35.28
2018-02-21T05:40:15.289Z,38.33
2018-02-21T05:40:46.899Z,37.42
2018-02-21T05:41:18.575Z,36.33
2018-02-21T05:41:50.227Z,37.75
2018-02-21T05:42:21.839Z,36.30
2018-02-21T05:42:53.451Z,36.22
2018-02-21T05:43:25.078Z,36.78
2018-02-21T05:43:56.705Z,36.17
2018-02-21T05:44:28.359Z,35.45
2018-02-21T05:44:59.983Z,36.85
2018-02-21T05:45:31.606Z,34.92
2018-02-21T05:46:03.259Z,35.80
2018-02-21T05:46:34.894Z,36.22
2018-02-21T05:47:06.561Z,34.63
2018-02-21T05:47:38.188Z,34.78
2018-02-21T05:48:09.821Z,35.80
2018-02-21T05:48:41.443Z,35.75
2018-02-21T05:49:13.075Z,35.15
2018-02-21T05:49:44.699Z,35.35
2018-02-21T05:50:16.321Z,35.22
2018-02-21T05:50:47.954Z,35.83
2018-02-21T05:51:19.573Z,35.65
2018-02-21T05:51:51.201Z,35.38
2018-02-21T05:52:22.835Z,35.35
2018-02-21T05:52:54.458Z,33.42
2018-02-21T05:53:26.118Z,34.03
2018-02-21T05:53:57.725Z,36.78
2018-02-21T05:54:29.375Z,35.83
2018-02-21T05:55:00.997Z,34.58
2018-02-21T05:55:32.610Z,35.28
2018-02-21T05:56:04.233Z,34.72
2018-02-21T05:56:35.874Z,34.70
2018-02-21T05:57:07.505Z,36.58
2018-02-21T05:57:39.158Z,36.50
2018-02-21T05:58:10.798Z,34.80
2018-02-21T05:58:42.447Z,34.88
2018-02-21T05:59:14.099Z,34.08
2018-02-21T05:59:45.733Z,34.40
2018-02-21T06:00:17.361Z,37.25
2018-02-21T06:00:48.995Z,33.28
2018-02-21T06:01:20.623Z,32.83
2018-02-21T06:01:52.244Z,36.22
2018-02-21T06:02:23.910Z,32.40
2018-02-21T06:02:55.565Z,35.30
2018-02-21T06:03:27.229Z,34.85
2018-02-21T06:03:58.851Z,34.17
2018-02-21T06:04:30.501Z,33.50
2018-02-21T06:05:02.126Z,34.22
2018-02-21T06:05:33.761Z,34.20
2018-02-21T06:06:05.395Z,34.28
2018-02-21T06:06:37.021Z,35.70
2018-02-21T06:07:08.641Z,36.05
2018-02-21T06:07:40.275Z,34.90
2018-02-21T06:08:11.923Z,34.72
2018-02-21T06:08:43.545Z,33.42
2018-02-21T06:09:15.173Z,34.90
2018-02-21T06:09:46.799Z,33.38
2018-02-21T06:10:18.435Z,33.35
2018-02-21T06:10:50.072Z,35.15
2018-02-21T06:11:21.705Z,34.67
2018-02-21T06:11:53.329Z,34.50
2018-02-21T06:12:24.933Z,36.05
2018-02-21T06:12:56.553Z,35.03
2018-02-21T06:13:28.189Z,35.92
2018-02-21T06:13:59.807Z,34.67
2018-02-21T06:14:31.453Z,36.10
2018-02-21T06:15:03.133Z,36.58
2018-02-21T06:15:34.769Z,35.45
2018-02-21T06:16:06.440Z,34.22
2018-02-21T06:16:38.071Z,34.85
2018-02-21T06:17:09.727Z,32.30
2018-02-21T06:17:41.339Z,34.00
2018-02-21T06:18:12.969Z,34.47
2018-02-21T06:18:44.615Z,32.85
2018-02-21T06:19:16.228Z,34.13
2018-02-21T06:19:47.897Z,38.80
2018-02-21T06:20:19.507Z,41.40
2018-02-21T06:20:51.151Z,39.65
2018-02-21T06:21:22.765Z,34.80
2018-02-21T06:21:54.405Z,35.95
2018-02-21T06:22:26.057Z,33.35
2018-02-21T06:22:57.700Z,36.42
2018-02-21T06:23:29.323Z,34.65
2018-02-21T06:24:00.993Z,33.85
2018-02-21T06:24:32.607Z,34.22
2018-02-21T06:25:04.267Z,34.95
2018-02-21T06:25:35.895Z,36.22
2018-02-21T06:26:07.536Z,34.38
2018-02-21T06:26:39.169Z,35.22
2018-02-21T06:27:10.783Z,37.22
2018-02-21T06:27:42.401Z,34.45
2018-02-21T06:28:14.063Z,37.08
2018-02-21T06:28:45.695Z,36.97
2018-02-21T06:29:17.327Z,35.92
2018-02-21T06:29:48.951Z,34.88
2018-02-21T06:30:20.557Z,34.67
2018-02-21T06:30:52.222Z,36.42
2018-02-21T06:31:23.857Z,35.60
2018-02-21T06:31:55.494Z,35.55
2018-02-21T06:32:27.130Z,36.90
2018-02-21T06:32:58.746Z,34.40
2018-02-21T06:33:30.367Z,34.58
2018-02-21T06:34:01.989Z,36.58
2018-02-21T06:34:33.649Z,35.58
2018-02-21T06:35:05.255Z,33.38
2018-02-21T06:35:36.885Z,35.22
2018-02-21T06:36:08.519Z,35.28
2018-02-21T06:36:40.161Z,34.42
2018-02-21T06:37:11.809Z,34.05
2018-02-21T06:37:43.442Z,36.20
2018-02-21T06:38:15.058Z,35.15
2018-02-21T06:38:46.691Z,34.55
2018-02-21T06:39:18.333Z,36.22
2018-02-21T06:39:49.957Z,35.83
2018-02-21T06:40:21.567Z,34.67
2018-02-21T06:40:53.213Z,36.63
2018-02-21T06:41:24.849Z,37.10
2018-02-21T06:41:56.493Z,35.50
2018-02-21T06:42:28.155Z,34.75
2018-02-21T06:42:59.787Z,34.50
2018-02-21T06:43:31.435Z,35.97
2018-02-21T06:44:03.077Z,34.22
2018-02-21T06:44:34.695Z,34.83
2018-02-21T06:45:06.338Z,34.50
2018-02-21T06:45:37.957Z,36.80
2018-02-21T06:46:09.573Z,35.80
2018-02-21T06:46:41.199Z,33.72
2018-02-21T06:47:12.876Z,36.35
2018-02-21T06:47:44.490Z,36.25
2018-02-21T06:48:16.120Z,34.30
2018-02-21T06:48:47.763Z,35.75
2018-02-21T06:49:19.397Z,35.00
2018-02-21T06:49:51.025Z,34.10
2018-02-21T06:50:22.661Z,34.45
2018-02-21T06:50:54.307Z,36.85
2018-02-21T06:51:25.945Z,35.75
2018-02-21T06:51:57.575Z,36.33
2018-02-21T06:52:29.185Z,35.88
2018-02-21T06:53:00.800Z,35.33
2018-02-21T06:53:32.421Z,35.70
2018-02-21T06:54:04.043Z,34.30